< < Back
Terminal Aerodrome Forecast


Current Version              Previous Versions:   1  2  3  4  5  6  7  8  9  

Terminal Aerodrome Forecast

530
FTUS42 KFFC 251700
TAFMCN
TAF
KMCN 251733Z 2518/2618 33005KT P6SM SKC
     FM260500 31004KT P6SM FEW025
     FM261300 33005KT P6SM FEW250=

Latest METAR

538
SAUS80 KWBC 251900 RRA
MTRMCN
METAR KMCN 251853Z VRB04KT 10SM CLR 24/07 A3000 RMK AO2 SLP158
T02390072


USA.gov is the U.S. government's official web portal to all federal, state and local government web resources and services.